Time;durP1;ratioP1;P1;durP2;ratioP2;P2;SDS_P1;SDS_P2;PMS_P1;PMS_P2;Temp;Humidity;BMP_temperature;BMP_pressure;BME280_temperature;BME280_humidity;BME280_pressure;Samples;Min_cycle;Max_cycle;Signal;HPM_P1;HPM_P2
2022/06/10 00:00:50;;;;;;;8.00;7.20;;;11.40;99.90;;;;;;5019608;28;20527;-65
2022/06/10 00:03:18;;;;;;;9.10;8.27;;;11.40;99.90;;;;;;5019605;28;20468;-66
2022/06/10 00:05:48;;;;;;;9.17;8.37;;;11.40;99.90;;;;;;5018853;28;20515;-66
2022/06/10 00:08:17;;;;;;;9.70;8.80;;;11.40;99.90;;;;;;5019507;28;20464;-66
2022/06/10 00:10:49;;;;;;;8.90;8.13;;;11.40;99.90;;;;;;5019025;28;20825;-66
2022/06/10 00:13:17;;;;;;;10.50;7.70;;;11.30;99.90;;;;;;5019065;28;20789;-66
2022/06/10 00:15:44;;;;;;;8.90;8.20;;;11.30;99.90;;;;;;5019340;28;20769;-66
2022/06/10 00:18:14;;;;;;;9.47;8.23;;;11.20;99.90;;;;;;5018702;28;20925;-66
2022/06/10 00:20:44;;;;;;;8.80;8.00;;;11.20;99.90;;;;;;5019137;28;20557;-66
2022/06/10 00:23:15;;;;;;;8.33;7.57;;;11.20;99.90;;;;;;5019662;28;20439;-65
2022/06/10 00:25:43;;;;;;;8.30;7.53;;;11.10;99.90;;;;;;5019414;28;20904;-65
2022/06/10 00:28:10;;;;;;;10.90;8.07;;;11.10;99.90;;;;;;5019563;28;20464;-65
2022/06/10 00:30:41;;;;;;;9.80;8.60;;;11.10;99.90;;;;;;5018641;28;20464;-65
2022/06/10 00:33:08;;;;;;;9.70;8.90;;;11.10;99.90;;;;;;5019808;28;20735;-66
2022/06/10 00:35:38;;;;;;;9.90;8.90;;;11.20;99.90;;;;;;5018027;28;21004;-66
2022/06/10 00:38:06;;;;;;;10.03;9.13;;;11.10;99.90;;;;;;5017909;28;20463;-65
2022/06/10 00:40:36;;;;;;;10.33;9.43;;;11.10;99.90;;;;;;5017877;28;20507;-65
2022/06/10 00:43:03;;;;;;;9.83;8.83;;;11.10;99.90;;;;;;5018695;28;20464;-65
2022/06/10 00:46:00;;;;;;;13.07;8.77;;;11.00;99.90;;;;;;5018467;28;20482;-65
2022/06/10 00:48:36;;;;;;;32.83;10.60;;;10.90;99.90;;;;;;5018723;28;20848;-66
2022/06/10 00:51:14;;;;;;;10.27;8.23;;;10.90;99.90;;;;;;5019043;28;20853;-65
2022/06/10 00:53:41;;;;;;;15.03;8.90;;;10.80;99.90;;;;;;5018837;28;20467;-65
2022/06/10 00:56:14;;;;;;;23.23;10.20;;;10.80;99.90;;;;;;5018380;28;20468;-65
2022/06/10 00:58:47;;;;;;;49.90;10.83;;;10.90;99.90;;;;;;5019259;28;20468;-65
2022/06/10 01:01:18;;;;;;;88.93;11.53;;;10.90;99.90;;;;;;5018444;28;20467;-65
2022/06/10 01:03:48;;;;;;;9.93;7.50;;;10.90;99.90;;;;;;5015526;28;20837;-65
2022/06/10 01:06:17;;;;;;;30.10;9.23;;;10.80;99.90;;;;;;5017684;28;20456;-65
2022/06/10 01:08:46;;;;;;;40.33;9.90;;;10.70;99.90;;;;;;5018764;28;20471;-65
2022/06/10 01:11:30;;;;;;;42.47;10.13;;;10.70;99.90;;;;;;5018522;28;20479;-65
2022/06/10 01:14:10;;;;;;;11.53;7.70;;;10.70;99.90;;;;;;5018080;28;20468;-65
2022/06/10 01:16:47;;;;;;;7.00;6.30;;;10.60;99.90;;;;;;5018353;28;20474;-65
2022/06/10 01:19:36;;;;;;;8.30;6.70;;;10.50;99.90;;;;;;5018735;28;20468;-65
2022/06/10 01:22:37;;;;;;;7.80;7.00;;;10.50;99.90;;;;;;5017956;28;20866;-65
2022/06/10 01:25:43;;;;;;;8.37;7.57;;;10.50;99.90;;;;;;5013417;28;20570;-65
2022/06/10 01:28:17;;;;;;;7.83;6.90;;;10.50;99.90;;;;;;5018181;28;20476;-65
2022/06/10 01:31:01;;;;;;;8.10;7.40;;;10.40;99.90;;;;;;5018352;28;20451;-65
2022/06/10 01:33:41;;;;;;;8.20;7.40;;;10.40;99.90;;;;;;5018489;28;20510;-65
2022/06/10 01:36:16;;;;;;;8.73;7.90;;;10.40;99.90;;;;;;5017669;28;20921;-65
2022/06/10 01:38:47;;;;;;;8.30;7.60;;;10.30;99.90;;;;;;5014959;28;20460;-65
2022/06/10 01:41:33;;;;;;;8.47;7.77;;;10.30;99.90;;;;;;5017679;28;20804;-65
2022/06/10 01:44:08;;;;;;;8.93;8.10;;;10.30;99.90;;;;;;5017133;28;20460;-65
2022/06/10 01:46:40;;;;;;;9.77;8.77;;;10.30;99.90;;;;;;5017966;28;20574;-65
2022/06/10 01:49:13;;;;;;;10.07;8.43;;;10.30;99.90;;;;;;5017444;28;20471;-65
2022/06/10 01:51:50;;;;;;;9.10;8.20;;;10.20;99.90;;;;;;5017553;28;20471;-65
2022/06/10 01:54:23;;;;;;;8.80;7.90;;;10.20;99.90;;;;;;5017740;28;20464;-65
2022/06/10 01:56:55;;;;;;;8.30;7.60;;;10.10;99.90;;;;;;5017653;28;20464;-65
2022/06/10 01:59:27;;;;;;;9.10;8.30;;;10.10;99.90;;;;;;5017641;28;20832;-65
2022/06/10 02:02:00;;;;;;;7.83;7.03;;;10.10;99.90;;;;;;5017409;28;20496;-65
2022/06/10 02:04:31;;;;;;;9.70;7.67;;;10.00;99.90;;;;;;5017752;28;20465;-64
2022/06/10 02:07:03;;;;;;;8.60;7.80;;;10.00;99.90;;;;;;5017682;28;20925;-64
2022/06/10 02:09:41;;;;;;;8.23;7.43;;;10.00;99.90;;;;;;5016044;28;20467;-64
2022/06/10 02:12:16;;;;;;;8.50;7.80;;;10.00;99.90;;;;;;5017020;28;20464;-65
2022/06/10 02:14:49;;;;;;;8.70;7.97;;;9.90;99.90;;;;;;5017476;28;20470;-64
2022/06/10 02:17:20;;;;;;;9.33;8.33;;;9.90;99.90;;;;;;5017447;28;20464;-65
2022/06/10 02:19:51;;;;;;;9.03;8.20;;;9.90;99.90;;;;;;5016066;28;20456;-65
2022/06/10 02:22:24;;;;;;;9.53;8.63;;;9.90;99.90;;;;;;5016937;28;20464;-65
2022/06/10 02:24:57;;;;;;;9.40;8.60;;;10.00;99.90;;;;;;5017627;28;20471;-65
2022/06/10 02:27:28;;;;;;;9.80;8.30;;;9.90;99.90;;;;;;5016843;28;20755;-65
2022/06/10 02:30:01;;;;;;;8.50;7.77;;;9.90;99.90;;;;;;5016918;28;20518;-64
2022/06/10 02:32:31;;;;;;;9.77;8.97;;;9.90;99.90;;;;;;5016940;28;20834;-64
2022/06/10 02:34:59;;;;;;;10.60;9.50;;;9.90;99.90;;;;;;5017162;28;20492;-64
2022/06/10 02:37:36;;;;;;;14.17;10.83;;;9.80;99.90;;;;;;5017544;28;20471;-64
2022/06/10 02:40:10;;;;;;;11.80;10.70;;;9.90;99.90;;;;;;5016094;28;20852;-64
2022/06/10 02:42:46;;;;;;;15.30;13.33;;;9.90;99.90;;;;;;5016905;28;20776;-64
2022/06/10 02:45:23;;;;;;;19.63;14.10;;;10.00;99.90;;;;;;5017067;28;20467;-64
2022/06/10 02:47:57;;;;;;;16.90;15.00;;;10.10;99.90;;;;;;5017364;28;21028;-64
2022/06/10 02:50:24;;;;;;;17.00;15.33;;;10.10;99.90;;;;;;5016651;28;20464;-64
2022/06/10 02:52:52;;;;;;;16.20;14.50;;;10.10;99.90;;;;;;5016914;28;20527;-64
2022/06/10 02:55:21;;;;;;;18.30;15.53;;;10.00;99.90;;;;;;5017540;28;20500;-64
2022/06/10 03:01:16;;;;;;;20.67;18.67;;;10.20;99.90;;;;;;5016537;28;20483;-64
2022/06/10 03:04:09;;;;;;;18.30;16.30;;;10.20;99.90;;;;;;5016253;28;20578;-64
2022/06/10 03:06:47;;;;;;;16.80;15.00;;;10.10;99.90;;;;;;5016898;28;20518;-64
2022/06/10 03:09:19;;;;;;;17.57;15.90;;;10.00;99.90;;;;;;5016878;28;20468;-64
2022/06/10 03:11:56;;;;;;;16.57;14.77;;;10.00;99.90;;;;;;5016176;28;20460;-64
2022/06/10 03:14:33;;;;;;;17.20;15.40;;;10.00;99.90;;;;;;5016797;28;20470;-63
2022/06/10 03:17:11;;;;;;;17.50;15.67;;;10.00;99.90;;;;;;5016797;28;20917;-63
2022/06/10 03:20:03;;;;;;;16.23;14.43;;;10.00;99.90;;;;;;5017499;28;20808;-63
2022/06/10 03:22:52;;;;;;;17.30;15.77;;;10.00;99.90;;;;;;5001041;28;20465;-63
2022/06/10 03:25:24;;;;;;;16.97;14.67;;;10.00;99.90;;;;;;5011225;28;20897;-63
2022/06/10 03:28:03;;;;;;;16.20;14.50;;;10.00;99.90;;;;;;5020457;28;20792;-63
2022/06/10 03:30:35;;;;;;;17.63;15.10;;;10.00;99.90;;;;;;5020110;28;20463;-63
2022/06/10 03:33:10;;;;;;;16.50;14.83;;;9.90;99.90;;;;;;5020000;28;20468;-63
2022/06/10 03:35:44;;;;;;;15.73;14.33;;;10.00;99.90;;;;;;5019610;28;20523;-63
2022/06/10 03:38:11;;;;;;;16.40;14.70;;;9.90;99.90;;;;;;5020328;28;20464;-63
2022/06/10 03:40:39;;;;;;;18.87;16.90;;;10.00;99.90;;;;;;5020094;28;20498;-63
2022/06/10 03:43:09;;;;;;;18.60;16.00;;;10.10;99.90;;;;;;5019882;28;20809;-64
2022/06/10 03:45:40;;;;;;;20.47;17.73;;;10.20;99.90;;;;;;5019874;28;20958;-63
2022/06/10 03:48:08;;;;;;;21.90;19.50;;;10.30;99.90;;;;;;5019964;28;20467;-63
2022/06/10 03:50:39;;;;;;;21.20;18.73;;;10.50;99.90;;;;;;5020157;28;20463;-63
2022/06/10 03:53:07;;;;;;;22.50;19.40;;;10.60;99.90;;;;;;5019920;28;20470;-63
2022/06/10 03:55:42;;;;;;;25.43;19.40;;;10.60;99.90;;;;;;5019677;28;20811;-63
2022/06/10 03:58:10;;;;;;;19.40;17.10;;;10.60;99.90;;;;;;5000291;28;20486;-63
2022/06/10 04:00:38;;;;;;;18.00;16.30;;;10.60;99.90;;;;;;5000323;28;20493;-63
2022/06/10 04:03:05;;;;;;;19.43;16.40;;;10.50;99.90;;;;;;5012002;28;20471;-63
2022/06/10 04:05:33;;;;;;;25.40;16.93;;;10.40;99.90;;;;;;5019923;28;20471;-63
2022/06/10 04:08:01;;;;;;;19.20;16.73;;;10.40;99.90;;;;;;5019481;28;20488;-63
2022/06/10 04:10:34;;;;;;;17.37;15.57;;;10.40;99.90;;;;;;5019453;28;20472;-63
2022/06/10 04:13:02;;;;;;;15.93;14.47;;;10.50;99.90;;;;;;5017823;28;20849;-63
2022/06/10 04:15:29;;;;;;;18.23;16.33;;;10.50;99.90;;;;;;5019109;28;20468;-63
2022/06/10 04:17:57;;;;;;;17.60;13.97;;;10.50;99.90;;;;;;5018501;28;20522;-63
2022/06/10 04:20:32;;;;;;;28.10;16.10;;;10.50;99.90;;;;;;5019130;28;20812;-64
2022/06/10 04:22:59;;;;;;;15.67;14.07;;;10.60;99.90;;;;;;5019434;28;20467;-64
2022/06/10 04:25:28;;;;;;;17.10;13.90;;;10.60;99.90;;;;;;5019607;28;20947;-64
2022/06/10 04:27:58;;;;;;;16.23;14.63;;;10.60;99.90;;;;;;5019057;28;21007;-63
2022/06/10 04:30:32;;;;;;;16.30;14.80;;;10.70;99.90;;;;;;5019374;28;20901;-63
2022/06/10 04:33:00;;;;;;;16.83;14.87;;;10.70;99.90;;;;;;5018536;28;20469;-64
2022/06/10 04:35:28;;;;;;;18.37;16.47;;;10.70;99.90;;;;;;5017978;28;20492;-64
2022/06/10 04:37:56;;;;;;;16.73;15.10;;;10.80;99.90;;;;;;5018932;28;20442;-64
2022/06/10 04:40:28;;;;;;;17.47;15.70;;;10.80;99.90;;;;;;5019357;28;20907;-64
2022/06/10 04:42:56;;;;;;;16.20;14.60;;;10.90;99.90;;;;;;5018569;28;20464;-64
2022/06/10 04:45:29;;;;;;;18.53;16.43;;;11.10;99.90;;;;;;5017429;28;20904;-64
2022/06/10 04:47:56;;;;;;;20.20;16.03;;;11.20;99.90;;;;;;5018887;28;20463;-64
2022/06/10 04:50:28;;;;;;;19.70;15.70;;;11.30;99.90;;;;;;5017777;28;20472;-64
2022/06/10 04:52:56;;;;;;;46.57;15.60;;;11.40;99.90;;;;;;5019036;28;20464;-64
2022/06/10 04:55:25;;;;;;;16.73;15.03;;;11.40;99.90;;;;;;5017150;28;20506;-64
2022/06/10 04:57:54;;;;;;;19.30;14.00;;;11.50;99.90;;;;;;5018252;28;20538;-64
2022/06/10 05:00:26;;;;;;;21.07;14.50;;;11.50;99.90;;;;;;5015770;28;20562;-64
2022/06/10 05:02:53;;;;;;;16.33;14.80;;;11.50;99.90;;;;;;5016766;28;20558;-64
2022/06/10 05:05:20;;;;;;;17.57;14.07;;;11.60;99.90;;;;;;5018225;28;20742;-64
2022/06/10 05:07:48;;;;;;;18.43;14.63;;;11.70;99.90;;;;;;5018805;28;20460;-64
2022/06/10 05:10:15;;;;;;;19.73;14.03;;;11.80;99.90;;;;;;5018019;28;20551;-64
2022/06/10 05:12:46;;;;;;;15.77;12.90;;;12.00;99.90;;;;;;5018653;28;20465;-64
2022/06/10 05:15:16;;;;;;;20.63;13.03;;;12.00;99.90;;;;;;5019575;28;20522;-64
2022/06/10 05:17:43;;;;;;;15.47;12.13;;;12.10;99.90;;;;;;5015215;28;20476;-65
2022/06/10 05:20:17;;;;;;;13.27;11.87;;;12.30;99.90;;;;;;5014120;28;20549;-65
2022/06/10 05:22:44;;;;;;;14.87;12.30;;;12.40;99.90;;;;;;5005310;28;20551;-64
2022/06/10 05:25:15;;;;;;;12.63;11.37;;;12.50;99.90;;;;;;5013340;28;20515;-65
2022/06/10 05:27:44;;;;;;;15.00;11.43;;;12.60;99.90;;;;;;5010676;28;20515;-65
2022/06/10 05:30:16;;;;;;;14.50;11.67;;;12.70;99.90;;;;;;5011748;28;20566;-65
2022/06/10 05:32:43;;;;;;;13.73;10.53;;;12.80;99.90;;;;;;5001337;28;20471;-64
2022/06/10 05:35:17;;;;;;;14.80;12.40;;;13.00;99.90;;;;;;5012359;28;20577;-65
2022/06/10 05:37:45;;;;;;;13.83;10.53;;;13.20;99.90;;;;;;5015759;28;20603;-65
2022/06/10 05:40:16;;;;;;;11.30;10.20;;;13.30;99.90;;;;;;5010771;28;20499;-64
2022/06/10 05:42:44;;;;;;;15.20;9.40;;;13.60;99.90;;;;;;5016741;28;20492;-64
2022/06/10 05:45:13;;;;;;;19.70;10.10;;;13.90;99.90;;;;;;5017759;28;20510;-64
2022/06/10 05:47:42;;;;;;;12.20;9.17;;;14.20;99.90;;;;;;5015835;28;20463;-64
2022/06/10 05:50:13;;;;;;;12.20;8.47;;;14.60;99.90;;;;;;5015440;28;20530;-64
2022/06/10 05:52:41;;;;;;;13.30;7.83;;;15.00;99.90;;;;;;5015362;28;20772;-64
2022/06/10 05:55:10;;;;;;;13.93;8.10;;;15.30;99.90;;;;;;5016817;28;20959;-64
2022/06/10 05:57:41;;;;;;;16.67;7.17;;;15.70;99.90;;;;;;5016063;28;20464;-65
2022/06/10 06:00:13;;;;;;;10.57;6.67;;;16.10;99.90;;;;;;5016712;28;20559;-65
2022/06/10 06:02:50;;;;;;;9.63;5.87;;;16.50;99.90;;;;;;5017161;28;20833;-63
2022/06/10 06:05:18;;;;;;;8.33;6.07;;;16.80;1.00;;;;;;5017346;28;20460;-65
2022/06/10 06:07:48;;;;;;;9.80;6.13;;;16.80;99.90;;;;;;5017274;28;20780;-65
2022/06/10 06:10:17;;;;;;;8.13;5.70;;;16.90;99.90;;;;;;5017341;28;20464;-63
2022/06/10 06:12:45;;;;;;;10.00;5.17;;;16.80;1.00;;;;;;5017128;28;20788;-66
2022/06/10 06:15:14;;;;;;;9.43;5.17;;;16.80;1.00;;;;;;5018357;28;20464;-65
2022/06/10 06:17:44;;;;;;;10.83;5.10;;;16.70;1.00;;;;;;5017259;28;20564;-65
2022/06/10 06:20:18;;;;;;;6.83;4.37;;;16.80;1.00;;;;;;5017705;28;20460;-66
2022/06/10 06:22:46;;;;;;;8.63;4.50;;;16.90;1.00;;;;;;5017778;28;20495;-67
2022/06/10 06:25:18;;;;;;;14.83;4.83;;;16.90;1.00;;;;;;5016976;28;20514;-67
2022/06/10 06:27:48;;;;;;;11.10;4.77;;;16.90;1.00;;;;;;5017910;28;20474;-67
2022/06/10 06:30:18;;;;;;;12.10;4.87;;;17.10;1.00;;;;;;5018782;28;20544;-67
2022/06/10 06:32:46;;;;;;;8.77;4.93;;;17.40;1.00;;;;;;5018520;28;20464;-67
2022/06/10 06:35:15;;;;;;;10.43;4.60;;;17.50;1.00;;;;;;5017779;28;20535;-68
2022/06/10 06:37:45;;;;;;;8.87;4.27;;;17.70;1.00;;;;;;5019564;28;20467;-70
2022/06/10 06:40:14;;;;;;;7.60;4.23;;;17.90;1.00;;;;;;5018130;28;20758;-66
2022/06/10 06:42:41;;;;;;;9.37;4.43;;;17.80;1.00;;;;;;5016910;28;20794;-68
2022/06/10 06:45:10;;;;;;;6.70;3.80;;;17.70;1.00;;;;;;5015970;28;20468;-68
2022/06/10 06:47:42;;;;;;;7.37;3.53;;;17.50;1.00;;;;;;5015101;28;20464;-65
2022/06/10 06:50:13;;;;;;;10.17;3.80;;;17.40;1.00;;;;;;5015039;28;20473;-67
2022/06/10 06:52:42;;;;;;;9.57;3.30;;;17.20;1.00;;;;;;5015762;28;20893;-65
2022/06/10 06:55:11;;;;;;;5.30;3.63;;;17.10;1.00;;;;;;5016869;28;20473;-66
2022/06/10 06:57:41;;;;;;;7.27;3.67;;;17.10;1.00;;;;;;5020405;28;20522;-66
2022/06/10 07:00:17;;;;;;;9.10;3.60;;;17.20;1.00;;;;;;5019717;28;20946;-66
2022/06/10 07:02:44;;;;;;;8.30;3.70;;;17.40;1.00;;;;;;5019275;28;20498;-66
2022/06/10 07:05:12;;;;;;;7.00;3.50;;;17.50;1.00;;;;;;5019366;28;20529;-66
2022/06/10 07:07:40;;;;;;;8.53;3.93;;;17.40;1.00;;;;;;5020367;28;20464;-66
2022/06/10 07:10:13;;;;;;;6.30;3.37;;;17.30;1.00;;;;;;5020209;28;20467;-65
2022/06/10 07:12:40;;;;;;;6.83;3.33;;;17.20;1.00;;;;;;5019736;28;20889;-65
2022/06/10 07:15:08;;;;;;;9.00;3.80;;;17.10;1.00;;;;;;5018212;28;20960;-65
2022/06/10 07:17:38;;;;;;;7.90;3.60;;;17.10;1.00;;;;;;5018686;28;20559;-66
2022/06/10 07:20:07;;;;;;;6.00;3.80;;;17.20;1.00;;;;;;5018724;28;20845;-66
2022/06/10 07:22:34;;;;;;;4.20;3.80;;;17.20;1.00;;;;;;5018125;28;20488;-65
2022/06/10 07:25:02;;;;;;;9.63;3.93;;;17.30;1.00;;;;;;5017631;28;20464;-65
2022/06/10 07:27:31;;;;;;;8.93;4.37;;;17.50;1.00;;;;;;5019045;28;20483;-66
2022/06/10 07:29:58;;;;;;;8.10;3.50;;;17.40;1.00;;;;;;5018921;28;20475;-66
2022/06/10 07:32:25;;;;;;;6.17;3.20;;;17.50;1.00;;;;;;5018997;28;20518;-66
2022/06/10 07:34:52;;;;;;;13.30;4.00;;;17.50;1.00;;;;;;5018199;28;20852;-66
2022/06/10 07:37:19;;;;;;;8.50;3.70;;;17.40;1.00;;;;;;5019162;28;20526;-66
2022/06/10 07:39:46;;;;;;;9.27;3.10;;;17.50;1.00;;;;;;5016799;28;20464;-66
2022/06/10 07:42:14;;;;;;;6.53;4.00;;;17.50;1.00;;;;;;5018424;28;20487;-65
2022/06/10 07:44:45;;;;;;;5.43;3.70;;;17.70;1.00;;;;;;5019287;28;20799;-65
2022/06/10 07:47:14;;;;;;;8.23;4.20;;;17.80;1.00;;;;;;5019268;28;20470;-66
2022/06/10 07:49:42;;;;;;;3.60;2.80;;;17.90;1.00;;;;;;5019303;28;20590;-65
2022/06/10 07:52:09;;;;;;;6.57;3.40;;;18.10;1.00;;;;;;5019267;28;20470;-65
2022/06/10 07:54:39;;;;;;;8.83;3.70;;;18.30;1.00;;;;;;5019711;28;20475;-66
2022/06/10 07:57:14;;;;;;;6.87;2.90;;;18.40;1.00;;;;;;5018618;28;20475;-67
2022/06/10 07:59:45;;;;;;;5.50;3.40;;;18.40;99.90;;;;;;5017761;28;20464;-65
2022/06/10 08:02:12;;;;;;;5.50;3.60;;;18.40;1.00;;;;;;5017949;28;20963;-65
2022/06/10 08:04:39;;;;;;;5.90;3.17;;;18.50;1.00;;;;;;5019801;28;20517;-65
2022/06/10 08:07:06;;;;;;;7.03;3.37;;;18.70;1.00;;;;;;5017761;28;20465;-66
2022/06/10 08:09:35;;;;;;;7.77;3.40;;;19.00;1.00;;;;;;5019802;28;20467;-66
2022/06/10 08:12:05;;;;;;;3.90;2.80;;;19.20;99.90;;;;;;5019309;28;20460;-65
2022/06/10 08:14:32;;;;;;;5.50;3.20;;;19.40;99.90;;;;;;5018726;28;20471;-65
2022/06/10 08:17:04;;;;;;;11.40;3.70;;;19.50;99.90;;;;;;5018475;28;21106;-65
2022/06/10 08:19:32;;;;;;;9.50;3.47;;;19.60;99.90;;;;;;5019174;28;20460;-65
2022/06/10 08:24:47;;;;;;;4.73;2.73;;;19.60;99.90;;;;;;5018874;28;20765;-65
2022/06/10 08:27:14;;;;;;;7.33;4.10;;;19.50;99.90;;;;;;5019493;28;20862;-65
2022/06/10 08:29:45;;;;;;;5.87;3.40;;;19.50;99.90;;;;;;5019375;28;20767;-65
2022/06/10 08:32:14;;;;;;;6.23;3.53;;;19.40;99.90;;;;;;5018691;28;20777;-65
2022/06/10 08:34:43;;;;;;;5.07;2.83;;;19.50;99.90;;;;;;5018914;28;20491;-65
2022/06/10 08:37:13;;;;;;;7.30;3.10;;;19.70;99.90;;;;;;5019441;28;20535;-65
2022/06/10 08:39:43;;;;;;;8.10;3.30;;;19.90;99.90;;;;;;5019204;28;20468;-65
2022/06/10 08:42:24;;;;;;;5.60;3.30;;;20.20;99.90;;;;;;5018544;28;20491;-65
2022/06/10 08:44:54;;;;;;;4.03;2.70;;;21.00;99.90;;;;;;5019106;28;20463;-65
2022/06/10 08:48:04;;;;;;;4.20;2.87;;;21.60;99.90;;;;;;5018707;28;20522;-65
2022/06/10 08:50:56;;;;;;;8.53;3.00;;;22.00;99.90;;;;;;5015847;28;20907;-66
2022/06/10 08:53:44;;;;;;;6.77;3.20;;;22.70;99.90;;;;;;5014271;28;20478;-67
2022/06/10 08:56:18;;;;;;;4.57;2.30;;;23.10;99.90;;;;;;5018481;28;20468;-66
2022/06/10 08:58:57;;;;;;;4.80;2.90;;;22.80;99.90;;;;;;5019300;28;20468;-66
2022/06/10 09:01:25;;;;;;;8.70;3.30;;;22.30;99.90;;;;;;5018761;28;20468;-65
2022/06/10 09:04:00;;;;;;;4.40;2.50;;;22.60;99.90;;;;;;5018553;28;20495;-64
2022/06/10 09:06:33;;;;;;;5.50;2.50;;;22.30;99.90;;;;;;5018047;28;20464;-68
2022/06/10 09:09:04;;;;;;;5.50;3.70;;;22.50;99.90;;;;;;5018880;28;20467;-66
2022/06/10 09:11:37;;;;;;;6.13;2.90;;;22.60;99.90;;;;;;5018349;28;20523;-66
2022/06/10 09:14:10;;;;;;;6.57;3.40;;;22.60;99.90;;;;;;5018245;28;20460;-64
2022/06/10 09:16:43;;;;;;;5.50;2.73;;;22.40;99.90;;;;;;5017708;28;20526;-65
2022/06/10 09:19:21;;;;;;;7.07;3.67;;;22.90;99.90;;;;;;5018494;28;20538;-65
2022/06/10 09:21:59;;;;;;;7.00;3.00;;;23.10;99.90;;;;;;5017796;28;20471;-64
2022/06/10 09:24:32;;;;;;;7.17;2.77;;;22.80;99.90;;;;;;5016210;28;20468;-64
2022/06/10 09:27:07;;;;;;;8.10;3.47;;;22.90;99.90;;;;;;5015352;28;20492;-64
2022/06/10 09:29:37;;;;;;;6.67;3.40;;;21.80;99.90;;;;;;5014244;28;20881;-64
2022/06/10 09:32:13;;;;;;;7.70;3.67;;;21.40;99.90;;;;;;5016641;28;20566;-64
2022/06/10 09:35:00;;;;;;;9.20;3.40;;;21.70;99.90;;;;;;5017656;28;20464;-63
2022/06/10 09:37:39;;;;;;;8.47;3.73;;;21.80;99.90;;;;;;5017367;28;20460;-62
2022/06/10 09:43:36;;;;;;;9.47;3.73;;;22.30;99.90;;;;;;5018152;28;20760;-63
2022/06/10 09:46:26;;;;;;;4.93;3.80;;;21.30;99.90;;;;;;5017518;28;20468;-64
2022/06/10 09:49:13;;;;;;;7.33;3.80;;;21.10;99.90;;;;;;5015923;28;20901;-65
2022/06/10 09:51:57;;;;;;;6.63;3.80;;;21.10;99.90;;;;;;5016470;28;20474;-63
2022/06/10 09:54:38;;;;;;;5.07;3.90;;;21.00;99.90;;;;;;4997101;28;20464;-63
2022/06/10 09:57:21;;;;;;;11.60;4.50;;;20.90;99.90;;;;;;4996988;28;20520;-64
2022/06/10 09:59:57;;;;;;;12.83;4.73;;;20.80;99.90;;;;;;5013043;28;20545;-64
2022/06/10 10:02:51;;;;;;;7.23;4.33;;;20.80;99.90;;;;;;5017049;28;20495;-64
2022/06/10 10:05:34;;;;;;;7.00;4.33;;;21.00;99.90;;;;;;5014833;28;20468;-63
2022/06/10 10:08:10;;;;;;;11.33;4.67;;;20.70;99.90;;;;;;5012515;28;20471;-63
2022/06/10 10:10:45;;;;;;;12.63;4.83;;;20.60;99.90;;;;;;5017283;28;20837;-64
2022/06/10 10:13:30;;;;;;;7.83;4.30;;;20.60;99.90;;;;;;5018118;28;20771;-63
2022/06/10 10:16:11;;;;;;;8.50;5.87;;;20.70;99.90;;;;;;5017511;28;20442;-63
2022/06/10 10:18:55;;;;;;;7.10;4.57;;;20.40;99.90;;;;;;5015403;28;20531;-63
2022/06/10 10:21:28;;;;;;;7.80;4.70;;;20.40;99.90;;;;;;5013301;28;20778;-64
2022/06/10 10:23:58;;;;;;;7.73;4.93;;;20.50;99.90;;;;;;5012780;28;20585;-63
2022/06/10 10:26:31;;;;;;;7.20;5.40;;;20.60;99.90;;;;;;5017261;28;20465;-63
2022/06/10 10:29:01;;;;;;;6.80;5.37;;;20.90;99.90;;;;;;5016901;28;20533;-63
2022/06/10 10:31:32;;;;;;;12.97;11.60;;;21.10;99.90;;;;;;5015320;28;20749;-63
2022/06/10 10:34:05;;;;;;;12.80;7.83;;;21.30;99.90;;;;;;5016827;28;20441;-63
2022/06/10 10:36:48;;;;;;;9.70;7.53;;;21.30;99.90;;;;;;5016676;28;20496;-64
2022/06/10 10:39:26;;;;;;;8.00;7.23;;;21.10;99.90;;;;;;5014762;28;20472;-65
2022/06/10 10:41:57;;;;;;;9.50;5.70;;;21.30;99.90;;;;;;5014920;28;20533;-62
2022/06/10 10:44:44;;;;;;;7.73;5.00;;;21.50;99.90;;;;;;5015738;28;20492;-64
2022/06/10 10:47:23;;;;;;;6.97;4.30;;;21.70;99.90;;;;;;5004917;28;20889;-64
2022/06/10 10:49:54;;;;;;;9.10;3.90;;;22.00;99.90;;;;;;5016303;28;20498;-66
2022/06/10 10:52:25;;;;;;;6.60;4.53;;;22.30;99.90;;;;;;5014023;28;20467;-67
2022/06/10 10:54:57;;;;;;;9.23;4.30;;;22.10;99.90;;;;;;5016770;28;20459;-64
2022/06/10 10:57:29;;;;;;;6.37;4.53;;;21.90;99.90;;;;;;5015277;28;20445;-64
2022/06/10 11:00:31;;;;;;;8.10;4.17;;;22.40;99.90;;;;;;5005485;28;20472;-64
2022/06/10 11:03:01;;;;;;;5.20;3.97;;;22.90;99.90;;;;;;5011607;28;20502;-65
2022/06/10 11:05:35;;;;;;;6.10;3.23;;;23.10;99.90;;;;;;5014629;28;20464;-65
2022/06/10 11:08:22;;;;;;;9.27;3.73;;;23.50;99.90;;;;;;5013838;28;20805;-63
2022/06/10 11:11:21;;;;;;;10.03;4.27;;;24.00;99.90;;;;;;5011126;28;20448;-65
2022/06/10 11:13:55;;;;;;;6.20;3.30;;;24.10;99.90;;;;;;5009210;28;20468;-63
2022/06/10 11:16:41;;;;;;;6.17;3.97;;;24.50;99.90;;;;;;5014968;28;20453;-63
2022/06/10 11:19:27;;;;;;;4.40;3.60;;;24.70;99.90;;;;;;5014184;28;20848;-64
2022/06/10 11:22:29;;;;;;;5.20;3.40;;;24.60;99.90;;;;;;5013329;28;20503;-62
2022/06/10 11:25:22;;;;;;;5.03;3.03;;;24.80;99.90;;;;;;5022676;28;20481;-65
2022/06/10 11:28:04;;;;;;;6.30;3.90;;;24.60;99.90;;;;;;5015180;28;20781;-63
2022/06/10 11:30:41;;;;;;;7.20;3.40;;;24.30;99.90;;;;;;5013998;28;20476;-64
2022/06/10 11:33:27;;;;;;;5.90;3.80;;;24.30;99.90;;;;;;5015830;28;20455;-63
2022/06/10 11:36:10;;;;;;;6.60;3.23;;;23.90;99.90;;;;;;4997326;28;20492;-63
2022/06/10 11:38:46;;;;;;;4.87;3.43;;;23.50;99.90;;;;;;5011287;28;20892;-62
2022/06/10 11:41:34;;;;;;;5.20;2.30;;;23.30;99.90;;;;;;5018794;28;20463;-61
2022/06/10 11:44:08;;;;;;;4.73;3.40;;;22.90;99.90;;;;;;5020476;28;20789;-63
2022/06/10 11:46:42;;;;;;;8.30;3.80;;;23.00;99.90;;;;;;5021323;28;20464;-62
2022/06/10 11:49:19;;;;;;;5.23;3.20;;;23.10;99.90;;;;;;5020301;28;20467;-62
2022/06/10 11:51:52;;;;;;;5.50;2.80;;;23.30;99.90;;;;;;5020123;28;20467;-63
2022/06/10 11:54:30;;;;;;;5.47;2.37;;;23.60;99.90;;;;;;5019682;28;20542;-62
2022/06/10 12:00:03;;;;;;;8.23;3.33;;;23.90;99.90;;;;;;5018962;28;20582;-64
2022/06/10 12:02:38;;;;;;;5.37;3.80;;;24.10;99.90;;;;;;5020446;28;20467;-63
2022/06/10 12:05:29;;;;;;;6.73;3.30;;;23.90;99.90;;;;;;5020008;28;20456;-62
2022/06/10 12:08:06;;;;;;;6.73;2.77;;;23.70;99.90;;;;;;5020193;28;20460;-61
2022/06/10 12:10:43;;;;;;;6.00;3.37;;;23.60;99.90;;;;;;5018671;28;20456;-62
2022/06/10 12:13:12;;;;;;;4.80;3.17;;;23.70;99.90;;;;;;5019318;28;20447;-63
2022/06/10 12:15:48;;;;;;;3.90;3.20;;;23.40;99.90;;;;;;5018371;28;20467;-64
2022/06/10 12:18:17;;;;;;;6.07;3.37;;;23.20;99.90;;;;;;5035672;28;20465;-63
2022/06/10 12:20:48;;;;;;;9.20;3.37;;;23.00;99.90;;;;;;5023006;28;20460;-62
2022/06/10 12:23:22;;;;;;;7.20;3.53;;;23.20;99.90;;;;;;5020030;28;20496;-64
2022/06/10 12:25:59;;;;;;;5.60;3.63;;;23.60;99.90;;;;;;5019116;28;20468;-63
2022/06/10 12:28:40;;;;;;;5.07;3.03;;;23.20;99.90;;;;;;5020212;28;20463;-63
2022/06/10 12:31:22;;;;;;;7.13;3.13;;;23.50;99.90;;;;;;5020576;28;20464;-64
2022/06/10 12:33:56;;;;;;;8.47;3.20;;;23.90;99.90;;;;;;5020245;28;20491;-63
2022/06/10 12:36:28;;;;;;;5.20;3.53;;;24.00;99.90;;;;;;5018593;28;20822;-62
2022/06/10 12:38:58;;;;;;;5.20;2.70;;;24.20;99.90;;;;;;5019571;28;20534;-64
2022/06/10 12:41:32;;;;;;;5.30;3.30;;;24.30;99.90;;;;;;5018958;28;20859;-62
2022/06/10 12:44:04;;;;;;;9.33;3.27;;;24.50;99.90;;;;;;5019191;28;20843;-64
2022/06/10 12:46:42;;;;;;;3.50;2.70;;;24.60;99.90;;;;;;5018669;28;20471;-63
2022/06/10 12:49:21;;;;;;;4.07;2.60;;;24.50;99.90;;;;;;5019645;28;20823;-66
2022/06/10 12:52:02;;;;;;;4.47;3.30;;;24.20;99.90;;;;;;5018678;28;20470;-63
2022/06/10 12:54:39;;;;;;;3.83;3.30;;;24.20;99.90;;;;;;5019071;28;20874;-63
2022/06/10 12:57:29;;;;;;;5.90;3.50;;;24.30;99.90;;;;;;5018935;28;20725;-62
2022/06/10 13:00:32;;;;;;;5.27;2.70;;;25.10;99.90;;;;;;5019349;28;20964;-62
2022/06/10 13:03:40;;;;;;;5.23;2.50;;;25.90;99.90;;;;;;5018797;28;20464;-63
2022/06/10 13:06:48;;;;;;;4.63;3.03;;;26.10;99.90;;;;;;5018559;28;20467;-63
2022/06/10 13:09:33;;;;;;;4.20;3.00;;;26.10;99.90;;;;;;5014149;28;20515;-62
2022/06/10 13:12:22;;;;;;;4.13;3.10;;;25.60;99.90;;;;;;5014911;28;20472;-63
2022/06/10 13:15:15;;;;;;;4.50;2.53;;;25.30;99.90;;;;;;5015478;28;20556;-63
2022/06/10 13:18:04;;;;;;;7.27;2.93;;;25.30;99.90;;;;;;5014382;28;20525;-62
2022/06/10 13:20:39;;;;;;;5.00;3.20;;;25.50;99.90;;;;;;5013696;28;20475;-62
2022/06/10 13:23:12;;;;;;;5.17;2.47;;;25.80;99.90;;;;;;5016850;28;20468;-62
2022/06/10 13:25:44;;;;;;;3.80;2.47;;;25.60;99.90;;;;;;5011135;28;20909;-63
2022/06/10 13:28:27;;;;;;;4.43;2.60;;;26.00;99.90;;;;;;5015137;28;20471;-62
2022/06/10 13:31:15;;;;;;;5.17;3.60;;;26.40;99.90;;;;;;5017601;28;20514;-62